Time;durP1;ratioP1;P1;durP2;ratioP2;P2;SDS_P1;SDS_P2;PMS_P1;PMS_P2;Temp;Humidity;BMP_temperature;BMP_pressure;BME280_temperature;BME280_humidity;BME280_pressure;Samples;Min_cycle;Max_cycle;Signal;HPM_P1;HPM_P2
2023/12/11 00:01:36;;;;;;;13.80;3.50;;;;;;;;;;5078539;28;20509;-84
2023/12/11 00:04:02;;;;;;;12.67;4.53;;;;;;;;;;5078863;28;20487;-85
2023/12/11 00:06:30;;;;;;;8.13;4.37;;;;;;;;;;5077857;28;20453;-84
2023/12/11 00:08:57;;;;;;;8.57;3.40;;;;;;;;;;5075749;28;20448;-85
2023/12/11 00:11:23;;;;;;;14.03;4.13;;;;;;;;;;5079653;28;21094;-84
2023/12/11 00:13:50;;;;;;;12.80;3.67;;;;;;;;;;5074191;28;20521;-81
2023/12/11 00:16:17;;;;;;;13.07;3.70;;;;;;;;;;5073333;28;20475;-85
2023/12/11 00:18:43;;;;;;;11.73;4.20;;;;;;;;;;5076916;28;20545;-81
2023/12/11 00:21:10;;;;;;;12.90;5.07;;;;;;;;;;5071984;28;20530;-85
2023/12/11 00:23:38;;;;;;;17.53;4.47;;;;;;;;;;5078554;28;20475;-85
2023/12/11 00:26:05;;;;;;;9.73;3.77;;;;;;;;;;5077533;28;20490;-84
2023/12/11 00:28:31;;;;;;;9.00;4.13;;;;;;;;;;5076281;28;20467;-85
2023/12/11 00:30:59;;;;;;;12.97;4.20;;;;;;;;;;5072782;28;20489;-84
2023/12/11 00:33:25;;;;;;;14.20;4.23;;;;;;;;;;5080104;28;20475;-85
2023/12/11 00:35:52;;;;;;;17.07;4.77;;;;;;;;;;5077936;28;20464;-82
2023/12/11 00:38:19;;;;;;;13.87;4.00;;;;;;;;;;5074293;28;20482;-82
2023/12/11 00:40:46;;;;;;;13.10;4.33;;;;;;;;;;5080165;28;20460;-84
2023/12/11 00:43:13;;;;;;;18.10;5.20;;;;;;;;;;5077654;28;20448;-82
2023/12/11 00:45:39;;;;;;;14.27;3.70;;;;;;;;;;5072717;28;20510;-85
2023/12/11 00:48:06;;;;;;;15.33;5.33;;;;;;;;;;5078463;28;20456;-82
2023/12/11 00:50:34;;;;;;;13.83;4.80;;;;;;;;;;5079305;28;20486;-83
2023/12/11 00:53:00;;;;;;;14.77;4.80;;;;;;;;;;5067913;28;20460;-83
2023/12/11 00:55:27;;;;;;;13.43;4.50;;;;;;;;;;5071841;28;20509;-85
2023/12/11 00:57:55;;;;;;;15.83;5.67;;;;;;;;;;5071619;28;20651;-86
2023/12/11 01:00:21;;;;;;;14.10;3.83;;;;;;;;;;5075848;28;20453;-84
2023/12/11 01:02:48;;;;;;;8.43;3.70;;;;;;;;;;5078216;28;20451;-85
2023/12/11 01:05:14;;;;;;;8.60;3.80;;;;;;;;;;5079933;28;20491;-83
2023/12/11 01:07:41;;;;;;;18.37;5.23;;;;;;;;;;5075062;28;20474;-82
2023/12/11 01:10:08;;;;;;;11.63;5.00;;;;;;;;;;5071224;28;20463;-84
2023/12/11 01:12:35;;;;;;;9.07;4.47;;;;;;;;;;5076101;28;20445;-84
2023/12/11 01:15:03;;;;;;;9.03;3.70;;;;;;;;;;5078158;28;20494;-83
2023/12/11 01:17:30;;;;;;;8.63;3.67;;;;;;;;;;5075909;28;20452;-83
2023/12/11 01:19:56;;;;;;;10.87;4.20;;;;;;;;;;5080054;28;20463;-82
2023/12/11 01:22:23;;;;;;;15.27;4.50;;;;;;;;;;5074038;28;20490;-83
2023/12/11 01:24:49;;;;;;;14.90;4.67;;;;;;;;;;5078057;28;20487;-83
2023/12/11 01:27:16;;;;;;;13.17;4.50;;;;;;;;;;5076054;28;20455;-84
2023/12/11 01:29:42;;;;;;;16.97;4.47;;;;;;;;;;5076264;28;20501;-83
2023/12/11 01:32:10;;;;;;;15.63;4.33;;;;;;;;;;5068985;28;20448;-83
2023/12/11 01:34:37;;;;;;;12.17;4.63;;;;;;;;;;5078992;28;20478;-82
2023/12/11 01:37:03;;;;;;;22.03;5.87;;;;;;;;;;5077789;28;20455;-82
2023/12/11 01:39:30;;;;;;;17.60;4.93;;;;;;;;;;5079279;28;20514;-84
2023/12/11 01:41:58;;;;;;;16.17;4.60;;;;;;;;;;5077280;28;20440;-84
2023/12/11 01:44:25;;;;;;;13.83;4.80;;;;;;;;;;5073202;28;20479;-82
2023/12/11 01:46:51;;;;;;;14.80;4.27;;;;;;;;;;5069095;28;20507;-83
2023/12/11 01:49:19;;;;;;;18.67;6.20;;;;;;;;;;5077108;28;20960;-82
2023/12/11 01:51:47;;;;;;;19.97;5.40;;;;;;;;;;5072390;28;21090;-84
2023/12/11 01:54:14;;;;;;;21.00;6.70;;;;;;;;;;5079308;28;20448;-83
2023/12/11 01:56:41;;;;;;;15.53;4.73;;;;;;;;;;5077100;28;20451;-83
2023/12/11 01:59:07;;;;;;;15.63;4.93;;;;;;;;;;5075173;28;20448;-84
2023/12/11 02:01:34;;;;;;;11.37;5.10;;;;;;;;;;5074014;28;20537;-83
2023/12/11 02:04:00;;;;;;;14.80;5.43;;;;;;;;;;5071280;28;20472;-84
2023/12/11 02:06:28;;;;;;;14.73;5.47;;;;;;;;;;5069133;28;20514;-84
2023/12/11 02:08:55;;;;;;;8.50;4.40;;;;;;;;;;5073617;28;20508;-84
2023/12/11 02:11:21;;;;;;;19.87;6.40;;;;;;;;;;5076164;28;20465;-84
2023/12/11 02:13:48;;;;;;;17.00;5.20;;;;;;;;;;5075893;28;20538;-84
2023/12/11 02:16:15;;;;;;;15.40;5.00;;;;;;;;;;5073446;28;20459;-83
2023/12/11 02:18:42;;;;;;;15.20;5.60;;;;;;;;;;5076020;28;20478;-84
2023/12/11 02:21:08;;;;;;;19.20;5.63;;;;;;;;;;5078605;28;20513;-86
2023/12/11 02:23:52;;;;;;;20.70;5.60;;;;;;;;;;5077255;28;20481;-83
2023/12/11 02:26:20;;;;;;;14.13;4.60;;;;;;;;;;5069274;28;20460;-84
2023/12/11 02:28:46;;;;;;;21.20;5.33;;;;;;;;;;5072114;28;20490;-84
2023/12/11 02:31:13;;;;;;;21.77;5.97;;;;;;;;;;5076652;28;20452;-84
2023/12/11 02:33:40;;;;;;;18.40;6.77;;;;;;;;;;5074768;28;20452;-84
2023/12/11 02:36:07;;;;;;;18.23;5.93;;;;;;;;;;5075207;28;21031;-82
2023/12/11 02:38:33;;;;;;;21.87;6.17;;;;;;;;;;5075138;28;20452;-84
2023/12/11 02:41:00;;;;;;;22.60;5.80;;;;;;;;;;5075978;28;20499;-85
2023/12/11 02:43:28;;;;;;;19.60;6.00;;;;;;;;;;5073236;28;20860;-85
2023/12/11 02:45:54;;;;;;;12.73;4.40;;;;;;;;;;5076288;28;20487;-86
2023/12/11 02:48:20;;;;;;;16.77;5.13;;;;;;;;;;5074552;28;20481;-84
2023/12/11 02:50:47;;;;;;;11.23;4.73;;;;;;;;;;5076464;28;20452;-84
2023/12/11 02:53:13;;;;;;;18.70;5.00;;;;;;;;;;5076932;28;20452;-84
2023/12/11 02:55:40;;;;;;;26.30;5.50;;;;;;;;;;5071556;28;20451;-83
2023/12/11 02:58:07;;;;;;;14.90;5.20;;;;;;;;;;5078108;28;20470;-85
2023/12/11 03:00:35;;;;;;;19.43;5.27;;;;;;;;;;5074800;28;20464;-84
2023/12/11 03:03:02;;;;;;;20.57;5.77;;;;;;;;;;5079411;28;20948;-84
2023/12/11 03:05:28;;;;;;;27.20;6.00;;;;;;;;;;5078375;28;20484;-83
2023/12/11 03:07:54;;;;;;;21.33;6.03;;;;;;;;;;5077501;28;20509;-85
2023/12/11 03:10:21;;;;;;;26.90;5.73;;;;;;;;;;5076288;28;20463;-83
2023/12/11 03:12:48;;;;;;;24.03;5.10;;;;;;;;;;5077910;28;20439;-84
2023/12/11 03:15:14;;;;;;;19.43;4.90;;;;;;;;;;5081506;28;20480;-82
2023/12/11 03:17:42;;;;;;;19.70;5.30;;;;;;;;;;5077689;28;20457;-84
2023/12/11 03:20:11;;;;;;;16.27;5.43;;;;;;;;;;5080028;28;20460;-84
2023/12/11 03:22:38;;;;;;;21.17;5.10;;;;;;;;;;5082356;28;20447;-81
2023/12/11 03:25:04;;;;;;;20.40;5.70;;;;;;;;;;5078297;28;20565;-86
2023/12/11 03:27:31;;;;;;;27.10;5.77;;;;;;;;;;5080368;28;20455;-84
2023/12/11 03:29:57;;;;;;;22.03;5.43;;;;;;;;;;5076921;28;20501;-84
2023/12/11 03:32:24;;;;;;;13.33;4.80;;;;;;;;;;5078710;28;20506;-82
2023/12/11 03:34:52;;;;;;;21.00;5.57;;;;;;;;;;5073894;28;20448;-85
2023/12/11 03:37:18;;;;;;;26.00;5.60;;;;;;;;;;5082871;28;20448;-85
2023/12/11 03:39:45;;;;;;;18.27;4.83;;;;;;;;;;5076725;28;21168;-85
2023/12/11 03:42:11;;;;;;;29.13;7.50;;;;;;;;;;5072771;28;20443;-83
2023/12/11 03:44:38;;;;;;;18.07;5.80;;;;;;;;;;5076560;28;20487;-83
2023/12/11 03:47:04;;;;;;;31.93;5.30;;;;;;;;;;5076210;28;20514;-83
2023/12/11 03:49:31;;;;;;;21.63;5.40;;;;;;;;;;5073607;28;20518;-83
2023/12/11 03:51:59;;;;;;;17.33;5.03;;;;;;;;;;5069650;28;20440;-82
2023/12/11 03:54:25;;;;;;;15.10;4.40;;;;;;;;;;5078944;28;20471;-82
2023/12/11 03:56:51;;;;;;;26.77;5.33;;;;;;;;;;5077984;28;20481;-83
2023/12/11 03:59:18;;;;;;;23.13;5.63;;;;;;;;;;5079235;28;20459;-83
2023/12/11 04:01:45;;;;;;;11.27;4.40;;;;;;;;;;5078168;28;20467;-83
2023/12/11 04:04:11;;;;;;;16.10;4.97;;;;;;;;;;5068713;28;20948;-83
2023/12/11 04:06:37;;;;;;;22.83;5.67;;;;;;;;;;5072585;28;20455;-83
2023/12/11 04:09:05;;;;;;;21.13;5.43;;;;;;;;;;5080261;28;20436;-82
2023/12/11 04:11:32;;;;;;;17.03;5.50;;;;;;;;;;5078197;28;20501;-81
2023/12/11 04:13:58;;;;;;;23.57;5.20;;;;;;;;;;5079182;28;20494;-84
2023/12/11 04:16:25;;;;;;;21.07;4.57;;;;;;;;;;5075947;28;20452;-83
2023/12/11 04:18:51;;;;;;;18.90;4.90;;;;;;;;;;5074078;28;20494;-82
2023/12/11 04:21:18;;;;;;;20.27;4.67;;;;;;;;;;5075764;28;20464;-83
2023/12/11 04:23:44;;;;;;;21.83;3.97;;;;;;;;;;5079765;28;20455;-81
2023/12/11 04:26:13;;;;;;;16.33;3.90;;;;;;;;;;5079500;28;20548;-81
2023/12/11 04:28:40;;;;;;;16.77;5.17;;;;;;;;;;5068044;28;20448;-83
2023/12/11 04:31:06;;;;;;;16.50;4.40;;;;;;;;;;5076797;28;21069;-82
2023/12/11 04:33:37;;;;;;;23.70;4.50;;;;;;;;;;5080605;28;20444;-82
2023/12/11 04:36:07;;;;;;;18.30;4.87;;;;;;;;;;5074775;28;20767;-81
2023/12/11 04:38:33;;;;;;;22.97;5.17;;;;;;;;;;5075328;28;21004;-83
2023/12/11 04:41:00;;;;;;;22.97;5.47;;;;;;;;;;5079433;28;20445;-84
2023/12/11 04:43:27;;;;;;;21.10;5.00;;;;;;;;;;5079785;28;20518;-82
2023/12/11 04:45:54;;;;;;;17.43;6.43;;;;;;;;;;5078434;28;20483;-83
2023/12/11 04:48:20;;;;;;;19.37;5.83;;;;;;;;;;5075712;28;20436;-82
2023/12/11 04:50:47;;;;;;;16.70;4.70;;;;;;;;;;5072811;28;20975;-84
2023/12/11 04:53:13;;;;;;;19.40;4.70;;;;;;;;;;5067417;28;20759;-85
2023/12/11 04:55:40;;;;;;;15.07;4.83;;;;;;;;;;5079303;28;20941;-82
2023/12/11 04:58:06;;;;;;;16.33;4.53;;;;;;;;;;5075564;28;20474;-81
2023/12/11 05:00:34;;;;;;;16.07;4.10;;;;;;;;;;5077380;28;21049;-83
2023/12/11 05:03:01;;;;;;;16.60;4.57;;;;;;;;;;5076602;28;20455;-83
2023/12/11 05:05:27;;;;;;;13.43;5.20;;;;;;;;;;5076201;28;20515;-82
2023/12/11 05:07:54;;;;;;;14.40;4.50;;;;;;;;;;5079659;28;20466;-81
2023/12/11 05:10:20;;;;;;;15.50;5.50;;;;;;;;;;5079649;28;21034;-83
2023/12/11 05:12:47;;;;;;;14.70;4.67;;;;;;;;;;5075300;28;20457;-82
2023/12/11 05:15:13;;;;;;;14.70;5.10;;;;;;;;;;5074203;28;20499;-82
2023/12/11 05:17:41;;;;;;;12.47;4.93;;;;;;;;;;5078653;28;20462;-83
2023/12/11 05:20:08;;;;;;;17.37;4.50;;;;;;;;;;5075048;28;20464;-80
2023/12/11 05:22:35;;;;;;;16.17;4.97;;;;;;;;;;5079720;28;20455;-82
2023/12/11 05:25:01;;;;;;;15.50;5.23;;;;;;;;;;5067827;28;20985;-83
2023/12/11 05:27:28;;;;;;;16.50;5.10;;;;;;;;;;5071812;28;20882;-81
2023/12/11 05:29:54;;;;;;;22.97;4.43;;;;;;;;;;5069983;28;20525;-81
2023/12/11 05:32:21;;;;;;;20.97;4.83;;;;;;;;;;5067612;28;20453;-82
2023/12/11 05:34:48;;;;;;;18.83;4.70;;;;;;;;;;5074390;28;20475;-81
2023/12/11 05:37:15;;;;;;;28.40;4.80;;;;;;;;;;5074481;28;20486;-81
2023/12/11 05:39:42;;;;;;;19.33;3.70;;;;;;;;;;5079014;28;20452;-82
2023/12/11 05:42:08;;;;;;;14.37;4.30;;;;;;;;;;5079482;28;20448;-84
2023/12/11 05:44:35;;;;;;;18.57;5.53;;;;;;;;;;5077129;28;20455;-83
2023/12/11 05:47:01;;;;;;;17.40;5.10;;;;;;;;;;5078768;28;20452;-82
2023/12/11 05:49:28;;;;;;;16.87;4.90;;;;;;;;;;5078779;28;21268;-83
2023/12/11 05:51:56;;;;;;;20.03;3.50;;;;;;;;;;5079257;28;20479;-83
2023/12/11 05:54:22;;;;;;;21.70;5.33;;;;;;;;;;5078799;28;20448;-83
2023/12/11 05:56:49;;;;;;;24.73;4.13;;;;;;;;;;5074975;28;20444;-82
2023/12/11 05:59:15;;;;;;;21.50;5.20;;;;;;;;;;5078737;28;20452;-82
2023/12/11 06:01:42;;;;;;;14.73;3.63;;;;;;;;;;5078107;28;21186;-81
2023/12/11 06:04:08;;;;;;;25.67;4.40;;;;;;;;;;5076366;28;20601;-81
2023/12/11 06:06:35;;;;;;;24.00;4.90;;;;;;;;;;5067756;28;21019;-82
2023/12/11 06:09:03;;;;;;;22.57;3.50;;;;;;;;;;5075868;28;20478;-81
2023/12/11 06:11:29;;;;;;;16.00;3.73;;;;;;;;;;5064869;28;20486;-80
2023/12/11 06:13:56;;;;;;;16.27;3.60;;;;;;;;;;5068442;28;20510;-80
2023/12/11 06:16:22;;;;;;;19.33;5.60;;;;;;;;;;5071687;28;20510;-80
2023/12/11 06:18:49;;;;;;;20.00;3.90;;;;;;;;;;5071408;28;20467;-81
2023/12/11 06:21:18;;;;;;;18.13;4.60;;;;;;;;;;5063610;28;20464;-81
2023/12/11 06:23:45;;;;;;;14.00;3.87;;;;;;;;;;5072594;28;21010;-80
2023/12/11 06:26:22;;;;;;;20.87;4.20;;;;;;;;;;5068553;28;20633;-82
2023/12/11 06:28:48;;;;;;;23.87;4.00;;;;;;;;;;5069977;28;20451;-81
2023/12/11 06:31:15;;;;;;;17.60;3.80;;;;;;;;;;5070218;28;21010;-82
2023/12/11 06:33:42;;;;;;;12.23;4.03;;;;;;;;;;5071390;28;20443;-82
2023/12/11 06:36:09;;;;;;;15.97;3.50;;;;;;;;;;5077864;28;20506;-81
2023/12/11 06:38:35;;;;;;;20.17;4.37;;;;;;;;;;5074212;28;21238;-81
2023/12/11 06:41:02;;;;;;;13.20;3.83;;;;;;;;;;5078038;28;20529;-81
2023/12/11 06:43:30;;;;;;;13.40;4.47;;;;;;;;;;5077427;28;20456;-81
2023/12/11 06:45:56;;;;;;;20.83;3.97;;;;;;;;;;5078626;28;20483;-82
2023/12/11 06:48:24;;;;;;;13.47;3.83;;;;;;;;;;5078456;28;20456;-82
2023/12/11 06:50:50;;;;;;;16.53;4.03;;;;;;;;;;5071315;28;20493;-81
2023/12/11 06:53:17;;;;;;;14.10;3.60;;;;;;;;;;5079976;28;20463;-81
2023/12/11 06:55:43;;;;;;;11.00;4.40;;;;;;;;;;5078531;28;20785;-81
2023/12/11 06:58:10;;;;;;;20.10;5.07;;;;;;;;;;5073548;28;20482;-81
2023/12/11 07:00:38;;;;;;;18.83;4.80;;;;;;;;;;5063401;28;20503;-81
2023/12/11 07:03:05;;;;;;;22.63;3.77;;;;;;;;;;5072046;28;20512;-81
2023/12/11 07:05:32;;;;;;;13.43;3.57;;;;;;;;;;5074640;28;20476;-81
2023/12/11 07:07:58;;;;;;;12.13;4.90;;;;;;;;;;5076061;28;20467;-81
2023/12/11 07:10:25;;;;;;;20.87;5.17;;;;;;;;;;5075991;28;20456;-81
2023/12/11 07:12:51;;;;;;;14.77;4.40;;;;;;;;;;5075489;28;20853;-81
2023/12/11 07:15:19;;;;;;;17.10;4.40;;;;;;;;;;5075800;28;20491;-81
2023/12/11 07:17:47;;;;;;;18.50;3.70;;;;;;;;;;5069080;28;20791;-82
2023/12/11 07:20:13;;;;;;;15.10;4.23;;;;;;;;;;5071578;28;20448;-82
2023/12/11 07:22:40;;;;;;;11.47;4.80;;;;;;;;;;5074603;28;20455;-81
2023/12/11 07:25:07;;;;;;;10.10;4.23;;;;;;;;;;5075215;28;20482;-81
2023/12/11 07:27:34;;;;;;;15.90;4.70;;;;;;;;;;5070300;28;20448;-82
2023/12/11 07:30:00;;;;;;;10.43;3.93;;;;;;;;;;5072636;28;20543;-81
2023/12/11 07:32:27;;;;;;;16.13;5.00;;;;;;;;;;5077094;28;20439;-82
2023/12/11 07:34:55;;;;;;;10.40;4.73;;;;;;;;;;5078367;28;20551;-81
2023/12/11 07:37:21;;;;;;;12.00;4.03;;;;;;;;;;5078377;28;20448;-82
2023/12/11 07:39:48;;;;;;;7.73;4.20;;;;;;;;;;5077781;28;20457;-82
2023/12/11 07:42:15;;;;;;;12.40;4.53;;;;;;;;;;5080565;28;20483;-82
2023/12/11 07:44:41;;;;;;;26.37;7.77;;;;;;;;;;5074549;28;20487;-82
2023/12/11 07:47:08;;;;;;;17.67;6.67;;;;;;;;;;5080423;28;21255;-82
2023/12/11 07:49:34;;;;;;;16.70;7.10;;;;;;;;;;5079689;28;20448;-82
2023/12/11 07:52:03;;;;;;;17.40;6.03;;;;;;;;;;5083095;28;20513;-82
2023/12/11 07:54:29;;;;;;;13.70;5.53;;;;;;;;;;5079192;28;20460;-82
2023/12/11 07:56:56;;;;;;;16.97;5.13;;;;;;;;;;5070988;28;20453;-81
2023/12/11 07:59:22;;;;;;;18.33;5.37;;;;;;;;;;5081915;28;20501;-80
2023/12/11 08:01:52;;;;;;;12.63;4.43;;;;;;;;;;5080909;28;20993;-82
2023/12/11 08:04:18;;;;;;;19.37;4.90;;;;;;;;;;5077296;28;20451;-81
2023/12/11 08:06:45;;;;;;;25.63;5.40;;;;;;;;;;5077753;28;20503;-81
2023/12/11 08:09:14;;;;;;;14.53;5.00;;;;;;;;;;5078897;28;20463;-83
2023/12/11 08:11:41;;;;;;;20.90;5.33;;;;;;;;;;5076769;28;20555;-82
2023/12/11 08:14:07;;;;;;;18.33;5.10;;;;;;;;;;5081089;28;20746;-80
2023/12/11 08:16:34;;;;;;;15.10;4.57;;;;;;;;;;5082229;28;20452;-83
2023/12/11 08:19:01;;;;;;;17.03;5.63;;;;;;;;;;5075657;28;20455;-82
2023/12/11 08:21:27;;;;;;;21.53;6.70;;;;;;;;;;5079329;28;20463;-83
2023/12/11 08:23:53;;;;;;;14.40;5.67;;;;;;;;;;5081996;28;20459;-82
2023/12/11 08:26:21;;;;;;;24.43;5.57;;;;;;;;;;5081300;28;20491;-83
2023/12/11 08:28:48;;;;;;;13.90;4.50;;;;;;;;;;5080177;28;20456;-81
2023/12/11 08:31:15;;;;;;;15.57;4.30;;;;;;;;;;5081211;28;20467;-81
2023/12/11 08:33:41;;;;;;;19.57;4.40;;;;;;;;;;5076644;28;20466;-81
2023/12/11 08:36:08;;;;;;;17.03;4.80;;;;;;;;;;5081266;28;20452;-82
2023/12/11 08:38:35;;;;;;;12.97;5.17;;;;;;;;;;5080363;28;20509;-81
2023/12/11 08:41:01;;;;;;;10.63;5.47;;;;;;;;;;5081738;28;20518;-82
2023/12/11 08:43:29;;;;;;;21.43;5.10;;;;;;;;;;5078318;28;20470;-81
2023/12/11 08:45:56;;;;;;;15.90;4.30;;;;;;;;;;5080242;28;20476;-81
2023/12/11 08:48:23;;;;;;;9.67;4.00;;;;;;;;;;5077304;28;20613;-82
2023/12/11 08:50:52;;;;;;;15.97;5.97;;;;;;;;;;5081438;28;20460;-82
2023/12/11 08:53:18;;;;;;;15.20;5.30;;;;;;;;;;5081239;28;20447;-80
2023/12/11 08:55:45;;;;;;;12.00;3.90;;;;;;;;;;5080061;28;20444;-81
2023/12/11 08:58:11;;;;;;;18.70;5.90;;;;;;;;;;5080818;28;20458;-82
2023/12/11 09:00:39;;;;;;;18.70;4.30;;;;;;;;;;5081005;28;20490;-82
2023/12/11 09:03:06;;;;;;;11.37;4.20;;;;;;;;;;5081402;28;20487;-80
2023/12/11 09:05:32;;;;;;;11.20;3.50;;;;;;;;;;5081448;28;20468;-83
2023/12/11 09:07:59;;;;;;;12.00;3.83;;;;;;;;;;5080756;28;20487;-84
2023/12/11 09:10:25;;;;;;;9.27;4.17;;;;;;;;;;5079714;28;20513;-83
2023/12/11 09:12:53;;;;;;;10.13;3.70;;;;;;;;;;5079974;28;20460;-82
2023/12/11 09:15:19;;;;;;;9.90;4.00;;;;;;;;;;5079779;28;20480;-82
2023/12/11 09:17:47;;;;;;;10.70;4.80;;;;;;;;;;5077642;28;20486;-83
2023/12/11 09:20:14;;;;;;;10.30;4.30;;;;;;;;;;5080046;28;20487;-82
2023/12/11 09:22:41;;;;;;;12.23;3.97;;;;;;;;;;5080629;28;20444;-82
2023/12/11 09:25:07;;;;;;;9.43;4.60;;;;;;;;;;5080140;28;20460;-82
2023/12/11 09:27:34;;;;;;;12.73;4.77;;;;;;;;;;5079728;28;21013;-82
2023/12/11 09:30:00;;;;;;;8.10;3.80;;;;;;;;;;5079194;28;20456;-81
2023/12/11 09:32:28;;;;;;;10.47;5.00;;;;;;;;;;5080030;28;20456;-81
2023/12/11 09:34:56;;;;;;;17.80;5.77;;;;;;;;;;5079706;28;20478;-83
2023/12/11 09:37:23;;;;;;;10.80;5.17;;;;;;;;;;5079445;28;20470;-83
2023/12/11 09:39:49;;;;;;;16.47;5.70;;;;;;;;;;5072689;28;20432;-82
2023/12/11 09:42:16;;;;;;;13.53;5.07;;;;;;;;;;5079418;28;20526;-82
2023/12/11 09:44:44;;;;;;;8.87;4.60;;;;;;;;;;5073855;28;20490;-82
2023/12/11 09:47:13;;;;;;;12.23;4.83;;;;;;;;;;5077163;28;20488;-82
2023/12/11 09:49:40;;;;;;;13.93;5.17;;;;;;;;;;5079725;28;20456;-82
2023/12/11 09:52:07;;;;;;;10.83;5.13;;;;;;;;;;5076488;28;20456;-81
2023/12/11 09:54:34;;;;;;;16.57;5.90;;;;;;;;;;5075081;28;20502;-83
2023/12/11 09:57:01;;;;;;;14.30;5.57;;;;;;;;;;5078921;28;20468;-83
2023/12/11 09:59:30;;;;;;;7.50;4.73;;;;;;;;;;5078751;28;20467;-81
2023/12/11 10:01:57;;;;;;;14.73;5.60;;;;;;;;;;5078630;28;20460;-82
2023/12/11 10:04:26;;;;;;;20.03;5.83;;;;;;;;;;5079712;28;20502;-82
2023/12/11 10:06:53;;;;;;;12.50;5.40;;;;;;;;;;5078207;28;20492;-82
2023/12/11 10:09:31;;;;;;;13.33;5.20;;;;;;;;;;5079080;28;20452;-82
2023/12/11 10:11:59;;;;;;;11.00;4.60;;;;;;;;;;5078373;28;20467;-83
2023/12/11 10:14:25;;;;;;;11.20;4.27;;;;;;;;;;5078215;28;20554;-82
2023/12/11 10:16:52;;;;;;;8.10;5.20;;;;;;;;;;5078850;28;20491;-83
2023/12/11 10:19:20;;;;;;;6.93;4.13;;;;;;;;;;5079025;28;20501;-84
2023/12/11 10:21:47;;;;;;;5.93;3.73;;;;;;;;;;5078790;28;20498;-83
2023/12/11 10:24:14;;;;;;;5.93;2.90;;;;;;;;;;5077259;28;20948;-84
2023/12/11 10:26:47;;;;;;;6.80;2.90;;;;;;;;;;5076715;28;20491;-83
2023/12/11 10:29:21;;;;;;;7.30;2.73;;;;;;;;;;5078134;28;20483;-82
2023/12/11 10:31:47;;;;;;;7.67;3.53;;;;;;;;;;5076281;28;20460;-82
2023/12/11 10:34:14;;;;;;;5.43;2.67;;;;;;;;;;5078472;28;20455;-82
2023/12/11 10:36:47;;;;;;;7.10;2.60;;;;;;;;;;5078470;28;20456;-82
2023/12/11 10:39:14;;;;;;;7.60;3.23;;;;;;;;;;5077877;28;20793;-83
2023/12/11 10:41:40;;;;;;;5.60;2.63;;;;;;;;;;5077984;28;20452;-83
2023/12/11 10:44:08;;;;;;;10.83;2.87;;;;;;;;;;5076773;28;20468;-83
2023/12/11 10:46:35;;;;;;;7.83;3.40;;;;;;;;;;5079157;28;20887;-83
2023/12/11 10:49:01;;;;;;;6.07;2.80;;;;;;;;;;5079080;28;20451;-83
2023/12/11 10:51:28;;;;;;;5.57;2.87;;;;;;;;;;5078186;28;20463;-84
2023/12/11 10:53:55;;;;;;;6.13;2.80;;;;;;;;;;5079123;28;20440;-85
2023/12/11 10:56:21;;;;;;;6.83;2.37;;;;;;;;;;5078188;28;20490;-86
2023/12/11 10:58:49;;;;;;;5.07;2.13;;;;;;;;;;5074609;28;20448;-84
2023/12/11 11:01:17;;;;;;;6.23;2.50;;;;;;;;;;5075593;28;20854;-84
2023/12/11 11:03:43;;;;;;;9.87;2.90;;;;;;;;;;5072259;28;20452;-83
2023/12/11 11:06:10;;;;;;;5.80;2.30;;;;;;;;;;5073937;28;20521;-84
2023/12/11 11:08:38;;;;;;;8.07;2.70;;;;;;;;;;5078706;28;20509;-84
2023/12/11 11:11:10;;;;;;;4.10;1.70;;;;;;;;;;5078041;28;20467;-82
2023/12/11 11:13:38;;;;;;;6.13;1.70;;;;;;;;;;5077105;28;20487;-83
2023/12/11 11:16:05;;;;;;;7.47;2.10;;;;;;;;;;5077617;28;20460;-82
2023/12/11 11:18:56;;;;;;;4.37;1.93;;;;;;;;;;5080487;28;21022;-84
2023/12/11 11:21:22;;;;;;;7.10;2.10;;;;;;;;;;5082180;28;20464;-84
2023/12/11 11:23:48;;;;;;;5.70;1.77;;;;;;;;;;5082457;28;20476;-84
2023/12/11 11:26:30;;;;;;;3.80;1.73;;;;;;;;;;5080388;28;20459;-82
2023/12/11 11:28:56;;;;;;;3.40;2.00;;;;;;;;;;5080791;28;21030;-83
2023/12/11 11:31:43;;;;;;;4.67;2.00;;;;;;;;;;5080757;28;21489;-82
2023/12/11 11:34:11;;;;;;;5.47;2.20;;;;;;;;;;5079318;28;20479;-83
2023/12/11 11:36:46;;;;;;;7.03;1.97;;;;;;;;;;5081351;28;20496;-83
2023/12/11 11:39:12;;;;;;;8.53;2.83;;;;;;;;;;5074174;28;20473;-84
2023/12/11 11:41:39;;;;;;;7.50;2.10;;;;;;;;;;5079523;28;21186;-84
2023/12/11 11:44:06;;;;;;;3.90;2.13;;;;;;;;;;5074456;28;20471;-82
2023/12/11 11:46:48;;;;;;;5.20;2.67;;;;;;;;;;5071916;28;20449;-84
2023/12/11 11:49:25;;;;;;;11.30;2.23;;;;;;;;;;5073241;28;20492;-84
2023/12/11 11:51:52;;;;;;;8.63;2.53;;;;;;;;;;5073749;28;20984;-84
2023/12/11 11:54:19;;;;;;;3.40;1.97;;;;;;;;;;5074622;28;20906;-84
2023/12/11 11:56:46;;;;;;;8.30;3.00;;;;;;;;;;5074798;28;20486;-82
2023/12/11 11:59:12;;;;;;;4.10;2.00;;;;;;;;;;5074622;28;20487;-85
2023/12/11 12:01:48;;;;;;;5.53;3.00;;;;;;;;;;5073537;28;21433;-82
2023/12/11 12:04:26;;;;;;;5.13;2.17;;;;;;;;;;5074996;28;20456;-83
2023/12/11 12:06:52;;;;;;;6.10;2.20;;;;;;;;;;5076074;28;20491;-83
2023/12/11 12:09:19;;;;;;;6.57;1.73;;;;;;;;;;5080498;28;20444;-86
2023/12/11 12:11:46;;;;;;;2.57;1.47;;;;;;;;;;5081825;28;20464;-83
2023/12/11 12:14:13;;;;;;;5.23;1.83;;;;;;;;;;5078507;28;20517;-84
2023/12/11 12:16:39;;;;;;;7.07;2.00;;;;;;;;;;5082103;28;20465;-85
2023/12/11 12:19:06;;;;;;;3.10;1.50;;;;;;;;;;5082140;28;20499;-82
2023/12/11 12:21:46;;;;;;;1.87;1.33;;;;;;;;;;5081378;28;20532;-83
2023/12/11 12:24:12;;;;;;;1.53;1.30;;;;;;;;;;5082308;28;20781;-84
2023/12/11 12:26:39;;;;;;;5.23;1.90;;;;;;;;;;5082167;28;20464;-85
2023/12/11 12:29:05;;;;;;;10.73;1.80;;;;;;;;;;5074375;28;20482;-84
2023/12/11 12:31:32;;;;;;;3.47;1.63;;;;;;;;;;5080721;28;20467;-84
2023/12/11 12:33:58;;;;;;;9.93;1.77;;;;;;;;;;5081761;28;20456;-84
2023/12/11 12:36:25;;;;;;;3.80;1.70;;;;;;;;;;5079753;28;20447;-84
2023/12/11 12:38:54;;;;;;;4.47;1.73;;;;;;;;;;5079428;28;20503;-84
2023/12/11 12:41:20;;;;;;;5.60;1.70;;;;;;;;;;5079638;28;20452;-83
2023/12/11 12:43:46;;;;;;;4.90;2.07;;;;;;;;;;5079759;28;20482;-84
2023/12/11 12:46:14;;;;;;;6.00;2.57;;;;;;;;;;5081085;28;20517;-84
2023/12/11 12:48:41;;;;;;;4.00;2.30;;;;;;;;;;5080621;28;20488;-86
2023/12/11 12:51:09;;;;;;;1.80;1.67;;;;;;;;;;5081147;28;20479;-82
2023/12/11 12:53:45;;;;;;;5.00;1.90;;;;;;;;;;5081656;28;20456;-82
2023/12/11 12:56:17;;;;;;;4.03;1.50;;;;;;;;;;5080660;28;20472;-84
2023/12/11 12:58:53;;;;;;;3.47;2.03;;;;;;;;;;5080871;28;20440;-83
2023/12/11 13:01:20;;;;;;;5.40;2.00;;;;;;;;;;5081082;28;20451;-85
2023/12/11 13:03:46;;;;;;;5.07;2.03;;;;;;;;;;5081392;28;20452;-82
2023/12/11 13:06:24;;;;;;;5.37;2.40;;;;;;;;;;5080901;28;20452;-84
2023/12/11 13:08:50;;;;;;;8.77;2.33;;;;;;;;;;5077957;28;20558;-82
2023/12/11 13:11:18;;;;;;;3.03;1.93;;;;;;;;;;5079575;28;20464;-83
2023/12/11 13:13:52;;;;;;;7.43;1.90;;;;;;;;;;5076281;28;20481;-84
2023/12/11 13:16:18;;;;;;;8.40;1.90;;;;;;;;;;5079176;28;20529;-82
2023/12/11 13:18:45;;;;;;;8.30;2.70;;;;;;;;;;5081077;28;20500;-84
2023/12/11 13:21:12;;;;;;;9.77;2.00;;;;;;;;;;5078077;28;20463;-85
2023/12/11 13:23:39;;;;;;;4.73;2.53;;;;;;;;;;5083124;28;20452;-84
2023/12/11 13:26:05;;;;;;;5.60;2.40;;;;;;;;;;5079804;28;21291;-85
2023/12/11 13:28:33;;;;;;;6.97;3.00;;;;;;;;;;5078600;28;20503;-85
2023/12/11 13:31:00;;;;;;;5.87;1.93;;;;;;;;;;5070514;28;20467;-83
2023/12/11 13:33:27;;;;;;;5.13;2.70;;;;;;;;;;5077249;28;20448;-85
2023/12/11 13:35:54;;;;;;;7.10;2.87;;;;;;;;;;5073920;28;20459;-83
2023/12/11 13:38:20;;;;;;;7.47;2.43;;;;;;;;;;5071897;28;20498;-84
2023/12/11 13:40:47;;;;;;;9.53;2.97;;;;;;;;;;5078712;28;20455;-82
2023/12/11 13:43:13;;;;;;;7.13;2.27;;;;;;;;;;5075278;28;20451;-84
2023/12/11 13:45:41;;;;;;;7.70;3.30;;;;;;;;;;5078928;28;20530;-84
2023/12/11 13:48:08;;;;;;;7.87;2.50;;;;;;;;;;5074169;28;20491;-85
2023/12/11 13:50:35;;;;;;;5.30;1.97;;;;;;;;;;5076971;28;20454;-84
2023/12/11 13:53:02;;;;;;;4.63;1.97;;;;;;;;;;5075112;28;21083;-85
2023/12/11 13:55:28;;;;;;;10.33;2.47;;;;;;;;;;5079540;28;20456;-85
2023/12/11 13:57:55;;;;;;;9.83;2.53;;;;;;;;;;5077742;28;20479;-88
2023/12/11 14:00:21;;;;;;;8.37;2.70;;;;;;;;;;5072240;28;20541;-86
2023/12/11 14:02:49;;;;;;;5.27;2.70;;;;;;;;;;5076427;28;20490;-85
2023/12/11 14:05:16;;;;;;;4.80;3.57;;;;;;;;;;5079391;28;20448;-84
2023/12/11 14:07:42;;;;;;;13.00;3.20;;;;;;;;;;5079307;28;20488;-85
2023/12/11 14:10:09;;;;;;;6.00;3.10;;;;;;;;;;5079572;28;20479;-82
2023/12/11 14:12:37;;;;;;;10.53;2.43;;;;;;;;;;5076796;28;20460;-82
2023/12/11 14:15:06;;;;;;;6.83;2.53;;;;;;;;;;5078157;28;20535;-86
2023/12/11 14:17:34;;;;;;;7.73;2.77;;;;;;;;;;5071324;28;21085;-87
2023/12/11 14:20:02;;;;;;;9.30;2.50;;;;;;;;;;5072013;28;20455;-83
2023/12/11 14:22:29;;;;;;;8.67;2.47;;;;;;;;;;5064695;28;20456;-82
2023/12/11 14:24:55;;;;;;;7.90;2.53;;;;;;;;;;5075519;28;20886;-84
2023/12/11 14:27:22;;;;;;;4.73;2.60;;;;;;;;;;5077325;28;20459;-85
2023/12/11 14:29:50;;;;;;;3.40;1.80;;;;;;;;;;5076742;28;20453;-85
2023/12/11 14:32:16;;;;;;;4.37;2.13;;;;;;;;;;5077562;28;20463;-86
2023/12/11 14:34:43;;;;;;;3.97;2.50;;;;;;;;;;5078914;28;20468;-85